createdAt,value
2017-10-04T00:01:16.371Z,89.70
2017-10-04T00:03:44.627Z,89.80
2017-10-04T00:06:12.878Z,89.80
2017-10-04T00:08:41.918Z,89.80
2017-10-04T00:11:10.175Z,89.70
2017-10-04T00:13:38.447Z,89.90
2017-10-04T00:16:06.701Z,89.90
2017-10-04T00:18:35.099Z,89.90
2017-10-04T00:21:04.083Z,90.00
2017-10-04T00:23:32.316Z,89.80
2017-10-04T00:26:00.578Z,89.90
2017-10-04T00:28:29.572Z,89.30
2017-10-04T00:30:58.584Z,89.00
2017-10-04T00:33:26.836Z,89.00
2017-10-04T00:35:55.073Z,88.30
2017-10-04T00:38:24.081Z,88.70
2017-10-04T00:40:52.452Z,88.70
2017-10-04T00:43:20.677Z,88.80
2017-10-04T00:45:49.704Z,88.10
2017-10-04T00:48:17.937Z,88.10
2017-10-04T00:50:46.160Z,88.70
2017-10-04T00:53:15.152Z,89.30
2017-10-04T00:55:44.382Z,89.80
2017-10-04T00:58:12.604Z,89.70
2017-10-04T01:00:40.832Z,89.80
2017-10-04T01:03:09.094Z,89.80
2017-10-04T01:05:37.325Z,90.10
2017-10-04T01:08:05.544Z,89.80
2017-10-04T01:10:33.808Z,89.90
2017-10-04T01:13:02.036Z,89.80
2017-10-04T01:15:31.024Z,90.10
2017-10-04T01:18:00.048Z,89.70
2017-10-04T01:20:29.036Z,89.60
2017-10-04T01:22:57.268Z,89.60
2017-10-04T01:25:25.520Z,89.50
2017-10-04T01:27:53.748Z,89.50
2017-10-04T01:30:22.018Z,89.50
2017-10-04T01:32:50.257Z,90.00
2017-10-04T01:35:18.493Z,89.40
2017-10-04T01:37:46.718Z,88.10
2017-10-04T01:40:15.736Z,87.70
2017-10-04T01:42:43.959Z,87.60
2017-10-04T01:45:12.180Z,88.10
2017-10-04T01:47:40.430Z,88.50
2017-10-04T01:50:08.647Z,88.80
2017-10-04T01:52:36.867Z,88.10
2017-10-04T01:55:05.396Z,87.40
2017-10-04T01:57:33.647Z,87.40
2017-10-04T02:00:01.845Z,87.80
2017-10-04T02:02:30.100Z,88.50
2017-10-04T02:04:58.319Z,88.60
2017-10-04T02:07:26.540Z,88.90
2017-10-04T02:09:55.564Z,89.50
2017-10-04T02:12:23.786Z,88.60
2017-10-04T02:14:52.783Z,89.10
2017-10-04T02:17:21.047Z,89.00
2017-10-04T02:19:49.268Z,89.10
2017-10-04T02:22:17.488Z,89.10
2017-10-04T02:24:45.740Z,89.10
2017-10-04T02:27:13.976Z,89.20
2017-10-04T02:29:42.956Z,89.50
2017-10-04T02:32:11.212Z,89.90
2017-10-04T02:34:40.200Z,90.10
2017-10-04T02:37:08.421Z,90.10
2017-10-04T02:39:36.676Z,90.30
2017-10-04T02:42:04.904Z,90.10
2017-10-04T02:44:33.128Z,89.70
2017-10-04T02:47:02.361Z,89.40
2017-10-04T02:49:30.581Z,89.30
2017-10-04T02:51:58.800Z,89.30
2017-10-04T02:54:27.250Z,89.30
2017-10-04T02:56:55.473Z,89.30
2017-10-04T02:59:23.704Z,89.40
2017-10-04T03:01:51.989Z,89.40
2017-10-04T03:04:20.977Z,87.60
2017-10-04T03:06:49.205Z,87.60
2017-10-04T03:09:18.396Z,86.30
2017-10-04T03:11:47.390Z,86.40
2017-10-04T03:14:15.620Z,86.30
2017-10-04T03:16:43.896Z,87.60
2017-10-04T03:19:12.884Z,88.80
2017-10-04T03:21:41.109Z,88.70
2017-10-04T03:24:09.351Z,88.90
2017-10-04T03:26:37.576Z,89.00
2017-10-04T03:29:05.796Z,88.90
2017-10-04T03:31:34.052Z,88.90
2017-10-04T03:34:02.283Z,88.80
2017-10-04T03:36:30.505Z,88.80
2017-10-04T03:38:59.527Z,88.80
2017-10-04T03:41:27.747Z,88.70
2017-10-04T03:43:55.970Z,88.80
2017-10-04T03:46:24.228Z,88.80
2017-10-04T03:48:52.449Z,88.80
2017-10-04T03:51:20.670Z,89.10
2017-10-04T03:53:49.904Z,89.00
2017-10-04T03:56:18.131Z,88.90
2017-10-04T03:58:46.352Z,89.00
2017-10-04T04:01:14.788Z,89.00
2017-10-04T04:03:43.012Z,89.00
2017-10-04T04:06:11.233Z,88.90
2017-10-04T04:08:39.504Z,88.30
2017-10-04T04:11:07.728Z,88.00
2017-10-04T04:13:35.948Z,88.00
2017-10-04T04:16:04.955Z,87.70
2017-10-04T04:18:33.176Z,87.70
2017-10-04T04:21:02.172Z,88.20
2017-10-04T04:23:30.421Z,88.20
2017-10-04T04:25:59.408Z,86.90
2017-10-04T04:28:27.633Z,86.80
2017-10-04T04:30:56.600Z,86.00
2017-10-04T04:33:24.820Z,85.60
2017-10-04T04:35:53.093Z,86.00
2017-10-04T04:38:33.200Z,86.30
2017-10-04T04:41:01.432Z,87.10
2017-10-04T04:43:29.652Z,87.80
2017-10-04T04:45:57.924Z,88.50
2017-10-04T04:48:26.149Z,88.50
2017-10-04T04:50:54.380Z,88.00
2017-10-04T04:53:22.644Z,87.40
2017-10-04T04:55:50.868Z,88.40
2017-10-04T04:58:19.092Z,88.40
2017-10-04T05:00:47.344Z,88.40
2017-10-04T05:03:16.328Z,88.60
2017-10-04T05:05:44.557Z,88.50
2017-10-04T05:08:12.808Z,87.00
2017-10-04T05:10:41.028Z,87.00
2017-10-04T05:13:09.261Z,86.00
2017-10-04T05:15:38.283Z,85.50
2017-10-04T05:18:06.512Z,85.50
2017-10-04T05:20:34.740Z,86.40
2017-10-04T05:23:03.188Z,87.20
2017-10-04T05:25:31.384Z,86.80
2017-10-04T05:28:00.381Z,88.50
2017-10-04T05:30:28.633Z,88.30
2017-10-04T05:32:56.855Z,88.40
2017-10-04T05:35:25.087Z,88.40
2017-10-04T05:37:53.361Z,88.40
2017-10-04T05:40:21.701Z,88.30
2017-10-04T05:42:49.924Z,88.40
2017-10-04T05:45:18.969Z,88.50
2017-10-04T05:47:48.699Z,88.60
2017-10-04T05:50:17.688Z,87.80
2017-10-04T05:52:45.951Z,87.70
2017-10-04T05:55:14.174Z,88.10
2017-10-04T05:57:42.404Z,88.50
2017-10-04T06:00:10.661Z,88.60
2017-10-04T06:02:38.884Z,88.60
2017-10-04T06:05:07.108Z,88.90
2017-10-04T06:07:35.368Z,89.30
2017-10-04T06:10:03.589Z,89.60
2017-10-04T06:12:31.812Z,89.50
2017-10-04T06:15:00.857Z,90.00
2017-10-04T06:17:29.076Z,89.30
2017-10-04T06:19:57.297Z,90.00
2017-10-04T06:22:25.551Z,89.50
2017-10-04T06:24:54.548Z,89.40
2017-10-04T06:27:23.537Z,89.60
2017-10-04T06:29:51.808Z,89.40
2017-10-04T06:32:20.035Z,89.70
2017-10-04T06:34:48.263Z,89.00
2017-10-04T06:37:16.545Z,88.70
2017-10-04T06:39:44.764Z,88.00
2017-10-04T06:42:12.985Z,89.00
2017-10-04T06:44:41.996Z,90.00
2017-10-04T06:47:10.212Z,90.00
2017-10-04T06:49:38.449Z,90.00
2017-10-04T06:52:06.902Z,90.20
2017-10-04T06:54:35.120Z,90.00
2017-10-04T06:57:04.116Z,88.40
2017-10-04T06:59:32.380Z,88.30
2017-10-04T07:02:00.605Z,87.50
2017-10-04T07:04:28.816Z,85.90
2017-10-04T07:06:57.061Z,87.10
2017-10-04T07:09:25.288Z,87.70
2017-10-04T07:11:54.275Z,87.70
2017-10-04T07:14:22.649Z,87.60
2017-10-04T07:16:50.874Z,87.50
2017-10-04T07:19:19.097Z,87.40
2017-10-04T07:21:47.372Z,86.70
2017-10-04T07:24:15.595Z,86.90
2017-10-04T07:26:43.813Z,86.30
2017-10-04T07:29:12.244Z,85.90
2017-10-04T07:31:40.464Z,86.40
2017-10-04T07:34:09.461Z,84.30
2017-10-04T07:36:37.740Z,84.30
2017-10-04T07:39:05.964Z,83.60
2017-10-04T07:41:34.956Z,84.00
2017-10-04T07:44:03.221Z,84.00
2017-10-04T07:46:31.474Z,82.70
2017-10-04T07:48:59.692Z,83.00
2017-10-04T07:51:27.966Z,82.20
2017-10-04T07:53:56.184Z,81.60
2017-10-04T07:56:24.417Z,79.30
2017-10-04T07:58:52.684Z,79.80
2017-10-04T08:01:20.920Z,79.00
2017-10-04T08:03:49.924Z,79.80
2017-10-04T08:06:18.316Z,79.70
2017-10-04T08:08:46.544Z,76.90
2017-10-04T08:11:14.784Z,76.10
2017-10-04T08:13:43.914Z,77.70
2017-10-04T08:16:12.144Z,77.50
2017-10-04T08:18:40.380Z,78.30
2017-10-04T08:21:09.416Z,77.00
2017-10-04T08:23:37.640Z,77.00
2017-10-04T08:26:05.868Z,75.60
2017-10-04T08:28:34.135Z,77.90
2017-10-04T08:31:03.132Z,77.20
2017-10-04T08:33:31.359Z,77.00
2017-10-04T08:35:59.625Z,75.90
2017-10-04T08:38:27.858Z,74.00
2017-10-04T08:40:56.085Z,73.90
2017-10-04T08:43:24.473Z,73.00
2017-10-04T08:45:52.700Z,74.20
2017-10-04T08:48:32.955Z,73.00
2017-10-04T08:51:01.184Z,74.30
2017-10-04T08:53:30.182Z,72.50
2017-10-04T08:55:58.463Z,72.50
2017-10-04T08:58:26.697Z,70.80
2017-10-04T09:00:54.928Z,70.60
2017-10-04T09:03:23.176Z,70.90
2017-10-04T09:06:03.202Z,67.30
2017-10-04T09:08:31.468Z,66.40
2017-10-04T09:10:59.701Z,66.80
2017-10-04T09:13:27.929Z,69.00
2017-10-04T09:15:56.193Z,69.40
2017-10-04T09:18:24.420Z,66.10
2017-10-04T09:20:52.648Z,65.40
2017-10-04T09:23:21.008Z,66.10
2017-10-04T09:25:49.244Z,66.00
2017-10-04T09:28:17.467Z,65.80
2017-10-04T09:30:45.751Z,65.00
2017-10-04T09:33:14.780Z,65.20
2017-10-04T09:35:43.019Z,65.10
2017-10-04T09:38:11.396Z,65.10
2017-10-04T09:40:39.633Z,66.00
2017-10-04T09:43:07.865Z,64.20
2017-10-04T09:45:36.900Z,62.70
2017-10-04T09:48:05.127Z,62.80
2017-10-04T09:50:33.356Z,62.40
2017-10-04T09:53:01.609Z,62.60
2017-10-04T09:55:29.840Z,63.90
2017-10-04T09:57:58.065Z,63.30
2017-10-04T10:00:26.313Z,61.90
2017-10-04T10:02:55.308Z,61.80
2017-10-04T10:05:23.537Z,61.70
2017-10-04T10:07:51.961Z,60.20
2017-10-04T10:10:20.187Z,59.90
2017-10-04T10:12:48.424Z,60.50
2017-10-04T10:15:16.696Z,63.10
2017-10-04T10:17:45.700Z,57.50
2017-10-04T10:20:13.938Z,57.50
2017-10-04T10:22:42.953Z,58.80
2017-10-04T10:25:11.187Z,58.80
2017-10-04T10:27:39.417Z,57.50
2017-10-04T10:30:07.677Z,57.50
2017-10-04T10:32:35.899Z,57.30
2017-10-04T10:35:04.124Z,58.50
2017-10-04T10:37:32.524Z,57.70
2017-10-04T10:40:00.749Z,57.30
2017-10-04T10:42:28.979Z,55.40
2017-10-04T10:44:57.319Z,56.90
2017-10-04T10:47:25.549Z,56.20
2017-10-04T10:49:53.780Z,57.40
2017-10-04T10:52:22.919Z,54.80
2017-10-04T10:54:51.147Z,54.80
2017-10-04T10:57:19.374Z,54.50
2017-10-04T10:59:48.409Z,55.60
2017-10-04T11:02:16.633Z,55.50
2017-10-04T11:04:44.864Z,55.50
2017-10-04T11:07:13.112Z,55.30
2017-10-04T11:09:41.720Z,56.60
2017-10-04T11:12:09.916Z,57.30
2017-10-04T11:14:38.174Z,58.10
2017-10-04T11:17:06.436Z,56.00
2017-10-04T11:19:34.660Z,57.40
2017-10-04T11:22:02.935Z,56.10
2017-10-04T11:24:31.169Z,56.70
2017-10-04T11:27:00.169Z,57.30
2017-10-04T11:29:28.444Z,57.30
2017-10-04T11:31:56.688Z,56.20
2017-10-04T11:34:24.916Z,53.90
2017-10-04T11:36:53.340Z,55.40
2017-10-04T11:39:21.568Z,53.40
2017-10-04T11:41:49.796Z,53.90
2017-10-04T11:44:18.045Z,53.20
2017-10-04T11:46:46.272Z,55.50
2017-10-04T11:49:14.521Z,53.50
2017-10-04T11:51:42.773Z,53.00
2017-10-04T11:54:11.003Z,53.10
2017-10-04T11:56:39.228Z,53.00
2017-10-04T11:59:07.477Z,52.50
2017-10-04T12:01:35.704Z,51.80
2017-10-04T12:04:03.932Z,52.90
2017-10-04T12:06:32.201Z,51.80
2017-10-04T12:09:00.428Z,51.50
2017-10-04T12:11:28.656Z,51.50
2017-10-04T12:13:57.052Z,50.50
2017-10-04T12:16:25.284Z,51.10
2017-10-04T12:18:53.512Z,51.40
2017-10-04T12:21:22.540Z,52.20
2017-10-04T12:23:50.784Z,51.60
2017-10-04T12:26:19.011Z,52.70
2017-10-04T12:28:48.152Z,49.80
2017-10-04T12:31:16.380Z,49.60
2017-10-04T12:33:44.615Z,51.00
2017-10-04T12:36:12.872Z,50.20
2017-10-04T12:38:41.872Z,49.90
2017-10-04T12:41:10.102Z,49.90
2017-10-04T12:43:39.994Z,49.30
2017-10-04T12:46:08.211Z,49.30
2017-10-04T12:48:36.544Z,49.60
2017-10-04T12:51:04.824Z,48.70
2017-10-04T12:53:33.052Z,48.60
2017-10-04T12:56:01.284Z,50.10
2017-10-04T12:58:29.548Z,49.90
2017-10-04T13:00:57.777Z,49.90
2017-10-04T13:03:26.008Z,49.70
2017-10-04T13:05:55.052Z,49.70
2017-10-04T13:08:23.284Z,49.70
2017-10-04T13:10:51.512Z,50.00
2017-10-04T13:13:19.880Z,48.20
2017-10-04T13:15:48.104Z,47.20
2017-10-04T13:18:16.340Z,47.90
2017-10-04T13:20:44.682Z,47.00
2017-10-04T13:23:12.909Z,45.80
2017-10-04T13:25:41.900Z,46.30
2017-10-04T13:28:10.180Z,46.30
2017-10-04T13:30:38.408Z,47.90
2017-10-04T13:33:06.725Z,47.00
2017-10-04T13:35:34.988Z,47.50
2017-10-04T13:38:03.221Z,44.60
2017-10-04T13:40:31.456Z,45.80
2017-10-04T13:43:00.497Z,45.40
2017-10-04T13:45:28.728Z,45.30
2017-10-04T13:47:56.964Z,45.80
2017-10-04T13:50:25.341Z,45.20
2017-10-04T13:52:53.573Z,45.10
2017-10-04T13:55:22.568Z,45.10
2017-10-04T13:57:50.845Z,45.00
2017-10-04T14:00:19.073Z,45.30
2017-10-04T14:02:48.068Z,45.00
2017-10-04T14:05:16.356Z,44.90
2017-10-04T14:07:44.598Z,45.00
2017-10-04T14:10:12.829Z,43.30
2017-10-04T14:12:41.872Z,46.20
2017-10-04T14:15:10.104Z,46.00
2017-10-04T14:17:38.335Z,43.30
2017-10-04T14:20:07.465Z,43.90
2017-10-04T14:22:35.688Z,43.80
2017-10-04T14:25:03.920Z,43.70
2017-10-04T14:27:32.178Z,43.50
2017-10-04T14:30:00.412Z,43.40
2017-10-04T14:32:28.639Z,44.10
2017-10-04T14:34:56.893Z,42.30
2017-10-04T14:37:25.127Z,43.70
2017-10-04T14:39:53.352Z,45.50
2017-10-04T14:42:21.629Z,44.40
2017-10-04T14:44:49.845Z,44.40
2017-10-04T14:47:18.081Z,45.00
2017-10-04T14:49:47.109Z,46.80
2017-10-04T14:52:15.346Z,46.90
2017-10-04T14:54:43.568Z,47.40
2017-10-04T14:57:12.602Z,47.00
2017-10-04T14:59:40.824Z,46.90
2017-10-04T15:02:09.827Z,48.20
2017-10-04T15:04:38.208Z,48.20
2017-10-04T15:07:06.436Z,46.80
2017-10-04T15:09:34.679Z,47.00
2017-10-04T15:12:03.816Z,47.50
2017-10-04T15:14:32.043Z,47.50
2017-10-04T15:17:00.271Z,47.50
2017-10-04T15:19:29.292Z,48.10
2017-10-04T15:21:57.512Z,48.20
2017-10-04T15:24:26.508Z,48.10
2017-10-04T15:26:54.909Z,48.00
2017-10-04T15:29:23.136Z,49.20
2017-10-04T15:31:51.365Z,49.20
2017-10-04T15:34:21.132Z,49.50
2017-10-04T15:36:49.373Z,49.50
2017-10-04T15:39:17.604Z,50.20
2017-10-04T15:41:46.740Z,52.40
2017-10-04T15:44:15.012Z,52.30
2017-10-04T15:46:43.244Z,53.10
2017-10-04T15:49:11.614Z,51.60
2017-10-04T15:51:45.053Z,51.40
2017-10-04T15:54:13.385Z,51.50
2017-10-04T15:56:41.617Z,52.20
2017-10-04T15:59:09.836Z,52.40
2017-10-04T16:01:38.239Z,52.20
2017-10-04T16:04:06.473Z,52.00
2017-10-04T16:06:34.700Z,52.40
2017-10-04T16:09:02.981Z,52.50
2017-10-04T16:11:31.228Z,53.70
2017-10-04T16:13:59.494Z,52.40
2017-10-04T16:16:28.569Z,52.40
2017-10-04T16:18:57.561Z,53.30
2017-10-04T16:21:25.800Z,53.30
2017-10-04T16:23:56.793Z,54.20
2017-10-04T16:26:28.604Z,54.10
2017-10-04T16:28:57.205Z,54.00
2017-10-04T16:31:25.436Z,54.80
2017-10-04T16:33:53.656Z,53.80
2017-10-04T16:36:21.913Z,53.80
2017-10-04T16:38:50.156Z,54.70
2017-10-04T16:41:18.384Z,54.40
2017-10-04T16:43:47.172Z,55.20
2017-10-04T16:46:15.419Z,55.40
2017-10-04T16:48:43.648Z,55.50
2017-10-04T16:51:12.663Z,55.50
2017-10-04T16:53:40.891Z,55.40
2017-10-04T16:56:09.121Z,55.50
2017-10-04T16:58:37.396Z,56.60
2017-10-04T17:01:06.388Z,56.60
2017-10-04T17:03:35.380Z,56.60
2017-10-04T17:06:03.881Z,56.50
2017-10-04T17:08:32.108Z,56.60
2017-10-04T17:11:01.807Z,56.60
2017-10-04T17:13:30.149Z,56.60
2017-10-04T17:16:04.646Z,56.60
2017-10-04T17:18:39.562Z,56.60
2017-10-04T17:21:08.608Z,56.60
2017-10-04T17:23:37.052Z,57.00
2017-10-04T17:26:05.284Z,56.50
2017-10-04T17:28:33.512Z,57.40
2017-10-04T17:31:01.965Z,56.40
2017-10-04T17:33:30.172Z,57.00
2017-10-04T17:35:58.399Z,58.10
2017-10-04T17:38:26.660Z,57.20
2017-10-04T17:40:54.891Z,58.20
2017-10-04T17:43:23.127Z,58.00
2017-10-04T17:45:51.390Z,58.50
2017-10-04T17:48:19.619Z,57.80
2017-10-04T17:50:48.611Z,57.80
2017-10-04T17:53:17.005Z,57.80
2017-10-04T17:55:45.233Z,58.10
2017-10-04T17:58:13.460Z,57.70
2017-10-04T18:00:41.716Z,57.90
2017-10-04T18:03:09.936Z,58.00
2017-10-04T18:05:38.164Z,58.10
2017-10-04T18:08:07.289Z,58.10
2017-10-04T18:10:35.516Z,58.10
2017-10-04T18:13:03.748Z,59.60
2017-10-04T18:15:32.172Z,58.90
2017-10-04T18:18:00.409Z,58.80
2017-10-04T18:20:28.635Z,60.10
2017-10-04T18:22:57.652Z,60.90
2017-10-04T18:25:25.881Z,60.80
2017-10-04T18:27:54.976Z,60.60
2017-10-04T18:30:23.432Z,60.20
2017-10-04T18:32:52.416Z,59.80
2017-10-04T18:35:21.427Z,61.00
2017-10-04T18:37:49.697Z,61.00
2017-10-04T18:40:17.940Z,61.10
2017-10-04T18:42:46.169Z,61.30
2017-10-04T18:45:15.307Z,60.00
2017-10-04T18:47:43.536Z,59.90
2017-10-04T18:50:11.765Z,60.50
2017-10-04T18:52:40.897Z,60.10
2017-10-04T18:55:09.119Z,60.10
2017-10-04T18:57:37.344Z,61.00
2017-10-04T19:00:05.608Z,62.50
2017-10-04T19:02:33.861Z,61.40
2017-10-04T19:05:02.076Z,60.70
2017-10-04T19:07:30.348Z,60.80
2017-10-04T19:09:58.580Z,60.90
2017-10-04T19:12:27.131Z,61.70
2017-10-04T19:14:56.168Z,61.70
2017-10-04T19:17:24.401Z,61.60
2017-10-04T19:19:52.634Z,61.40
2017-10-04T19:22:21.649Z,61.80
2017-10-04T19:24:49.888Z,61.80
2017-10-04T19:27:18.115Z,61.80
2017-10-04T19:29:46.392Z,62.90
2017-10-04T19:32:14.612Z,62.50
2017-10-04T19:34:42.880Z,62.20
2017-10-04T19:37:11.140Z,62.20
2017-10-04T19:39:39.368Z,62.00
2017-10-04T19:42:07.605Z,62.60
2017-10-04T19:44:36.617Z,61.90
2017-10-04T19:47:04.848Z,61.90
2017-10-04T19:49:33.075Z,61.20
2017-10-04T19:52:02.845Z,61.70
2017-10-04T19:54:31.068Z,61.70
2017-10-04T19:56:59.300Z,61.50
2017-10-04T19:59:28.316Z,61.60
2017-10-04T20:01:56.549Z,61.40
2017-10-04T20:04:25.540Z,61.30
2017-10-04T20:06:53.804Z,61.20
2017-10-04T20:09:22.807Z,61.70
2017-10-04T20:11:51.058Z,61.50
2017-10-04T20:14:19.313Z,61.80
2017-10-04T20:16:47.549Z,62.50
2017-10-04T20:19:16.554Z,61.60
2017-10-04T20:21:44.821Z,61.50
2017-10-04T20:24:13.049Z,61.70
2017-10-04T20:26:42.045Z,61.40
2017-10-04T20:29:10.304Z,61.30
2017-10-04T20:31:38.532Z,61.20
2017-10-04T20:34:06.761Z,61.10
2017-10-04T20:36:35.013Z,61.20
2017-10-04T20:39:03.240Z,61.40
2017-10-04T20:41:32.161Z,60.90
2017-10-04T20:44:00.635Z,61.40
2017-10-04T20:46:28.865Z,62.10
2017-10-04T20:48:57.104Z,62.20
2017-10-04T20:51:25.379Z,61.80
2017-10-04T20:53:53.641Z,61.10
2017-10-04T20:56:21.876Z,61.60
2017-10-04T20:58:50.911Z,61.60
2017-10-04T21:01:19.185Z,61.50
2017-10-04T21:03:47.405Z,61.20
2017-10-04T21:06:15.683Z,61.80
2017-10-04T21:08:43.912Z,61.00
2017-10-04T21:11:12.140Z,60.90
2017-10-04T21:13:40.425Z,61.30
2017-10-04T21:16:09.424Z,62.40
2017-10-04T21:18:37.659Z,62.40
2017-10-04T21:21:06.692Z,62.10
2017-10-04T21:23:34.924Z,62.00
2017-10-04T21:26:03.153Z,61.30
2017-10-04T21:28:32.187Z,60.70
2017-10-04T21:31:00.424Z,60.70
2017-10-04T21:33:28.668Z,62.70
2017-10-04T21:35:56.937Z,61.50
2017-10-04T21:38:25.163Z,60.60
2017-10-04T21:40:54.156Z,61.40
2017-10-04T21:43:22.436Z,61.60
2017-10-04T21:45:50.711Z,60.70
2017-10-04T21:48:18.916Z,60.50
2017-10-04T21:50:47.165Z,60.40
2017-10-04T21:53:15.401Z,60.60
2017-10-04T21:55:43.635Z,60.60
2017-10-04T21:58:11.968Z,61.00
2017-10-04T22:00:40.960Z,61.60
2017-10-04T22:03:09.960Z,61.00
2017-10-04T22:05:38.220Z,61.00
2017-10-04T22:08:06.454Z,61.20
2017-10-04T22:10:35.455Z,60.50
2017-10-04T22:13:03.721Z,60.50
2017-10-04T22:15:31.960Z,60.50
2017-10-04T22:18:00.188Z,60.30
2017-10-04T22:20:28.436Z,60.70
2017-10-04T22:22:56.673Z,60.60
2017-10-04T22:25:24.904Z,61.70
2017-10-04T22:27:53.165Z,60.40
2017-10-04T22:30:22.196Z,61.40
2017-10-04T22:32:50.425Z,61.30
2017-10-04T22:35:18.808Z,61.10
2017-10-04T22:37:47.036Z,60.80
2017-10-04T22:40:15.284Z,61.00
2017-10-04T22:42:44.280Z,61.40
2017-10-04T22:45:12.509Z,61.30
2017-10-04T22:47:41.504Z,60.60
2017-10-04T22:50:09.773Z,60.60
2017-10-04T22:52:38.011Z,60.90
2017-10-04T22:55:06.239Z,61.30
2017-10-04T22:57:34.488Z,62.40
2017-10-04T23:00:02.749Z,61.30
2017-10-04T23:02:30.982Z,60.70
2017-10-04T23:04:59.371Z,61.40
2017-10-04T23:07:27.597Z,61.50
2017-10-04T23:09:55.836Z,61.80
2017-10-04T23:12:24.277Z,62.20
2017-10-04T23:14:52.519Z,62.90
2017-10-04T23:17:20.753Z,61.70
2017-10-04T23:19:49.004Z,62.00
2017-10-04T23:22:17.240Z,61.20
2017-10-04T23:24:46.236Z,62.00
2017-10-04T23:27:14.497Z,61.90
2017-10-04T23:29:43.480Z,62.40
2017-10-04T23:32:11.708Z,62.20
2017-10-04T23:34:40.138Z,63.00
2017-10-04T23:37:08.365Z,62.30
2017-10-04T23:39:36.603Z,62.50
2017-10-04T23:42:05.638Z,62.20
2017-10-04T23:44:33.860Z,62.10
2017-10-04T23:47:02.095Z,62.60
2017-10-04T23:49:30.352Z,63.00
2017-10-04T23:51:58.624Z,63.00
2017-10-04T23:54:27.654Z,63.20
2017-10-04T23:56:56.140Z,63.10
2017-10-04T23:59:24.373Z,63.10
